createdAt,value
2018-05-18T00:00:09.063Z,0
2018-05-18T00:00:35.225Z,0
2018-05-18T00:01:01.364Z,0
2018-05-18T00:01:27.520Z,0
2018-05-18T00:01:53.683Z,0
2018-05-18T00:02:19.828Z,0
2018-05-18T00:02:45.962Z,0
2018-05-18T00:03:12.120Z,0
2018-05-18T00:03:38.292Z,0
2018-05-18T00:04:04.433Z,0
2018-05-18T00:04:30.571Z,0
2018-05-18T00:04:56.705Z,0
2018-05-18T00:05:22.848Z,0
2018-05-18T00:05:48.988Z,0
2018-05-18T00:06:15.144Z,0
2018-05-18T00:06:41.276Z,0
2018-05-18T00:07:07.438Z,0
2018-05-18T00:07:33.586Z,0
2018-05-18T00:07:59.741Z,0
2018-05-18T00:08:25.875Z,0
2018-05-18T00:08:52.014Z,0
2018-05-18T00:09:18.158Z,0
2018-05-18T00:09:44.299Z,0
2018-05-18T00:10:10.462Z,0
2018-05-18T00:10:36.640Z,0
2018-05-18T00:11:02.787Z,0
2018-05-18T00:11:28.921Z,0
2018-05-18T00:11:55.056Z,0
2018-05-18T00:12:21.203Z,0
2018-05-18T00:12:47.376Z,0
2018-05-18T00:13:13.521Z,0
2018-05-18T00:13:39.708Z,0
2018-05-18T00:14:05.880Z,0
2018-05-18T00:14:32.010Z,0
2018-05-18T00:14:58.154Z,0
2018-05-18T00:15:24.296Z,0
2018-05-18T00:15:50.438Z,0
2018-05-18T00:16:16.591Z,0
2018-05-18T00:16:42.747Z,0
2018-05-18T00:17:08.891Z,0
2018-05-18T00:17:35.022Z,0
2018-05-18T00:18:01.194Z,0
2018-05-18T00:18:27.331Z,0
2018-05-18T00:18:53.491Z,0
2018-05-18T00:19:19.659Z,0
2018-05-18T00:19:45.817Z,0
2018-05-18T00:20:11.950Z,0
2018-05-18T00:20:38.094Z,0
2018-05-18T00:21:04.229Z,0
2018-05-18T00:21:30.417Z,0
2018-05-18T00:21:56.561Z,0
2018-05-18T00:22:22.722Z,0
2018-05-18T00:22:48.864Z,0
2018-05-18T00:23:15.020Z,0
2018-05-18T00:23:41.179Z,0
2018-05-18T00:24:07.318Z,0
2018-05-18T00:24:33.463Z,0
2018-05-18T00:24:59.605Z,0
2018-05-18T00:25:25.769Z,0
2018-05-18T00:25:51.901Z,0
2018-05-18T00:26:18.037Z,0
2018-05-18T00:26:44.197Z,0
2018-05-18T00:27:10.332Z,0
2018-05-18T00:27:36.474Z,0
2018-05-18T00:28:02.613Z,0
2018-05-18T00:28:28.756Z,0
2018-05-18T00:28:54.911Z,0
2018-05-18T00:29:21.050Z,0
2018-05-18T00:29:47.187Z,0
2018-05-18T00:30:13.323Z,0
2018-05-18T00:30:39.485Z,0
2018-05-18T00:31:05.621Z,0
2018-05-18T00:31:32.371Z,0
2018-05-18T00:31:58.643Z,0
2018-05-18T00:32:24.801Z,0
2018-05-18T00:32:50.939Z,0
2018-05-18T00:33:17.084Z,0
2018-05-18T00:33:43.220Z,0
2018-05-18T00:34:09.360Z,0
2018-05-18T00:34:35.498Z,0
2018-05-18T00:35:01.723Z,0
2018-05-18T00:35:27.796Z,0
2018-05-18T00:35:53.934Z,0
2018-05-18T00:36:20.071Z,0
2018-05-18T00:36:46.242Z,0
2018-05-18T00:37:12.383Z,0
2018-05-18T00:37:38.516Z,0
2018-05-18T00:38:04.655Z,0
2018-05-18T00:38:30.793Z,0
2018-05-18T00:38:56.936Z,0
2018-05-18T00:39:23.070Z,0
2018-05-18T00:39:49.213Z,0
2018-05-18T00:40:15.372Z,0
2018-05-18T00:40:41.629Z,0
2018-05-18T00:41:07.725Z,0
2018-05-18T00:41:33.856Z,0
2018-05-18T00:41:59.998Z,0
2018-05-18T00:42:26.135Z,0
2018-05-18T00:42:52.281Z,0
2018-05-18T00:43:18.436Z,0
2018-05-18T00:43:44.580Z,0
2018-05-18T00:44:10.717Z,0
2018-05-18T00:44:36.858Z,0
2018-05-18T00:45:02.993Z,0
2018-05-18T00:45:29.160Z,0
2018-05-18T00:45:55.305Z,0
2018-05-18T00:46:21.442Z,0
2018-05-18T00:46:47.582Z,0
2018-05-18T00:47:13.737Z,0
2018-05-18T00:47:39.897Z,0
2018-05-18T00:48:06.074Z,0
2018-05-18T00:48:32.242Z,0
2018-05-18T00:48:58.374Z,0
2018-05-18T00:49:24.572Z,0
2018-05-18T00:49:50.760Z,0
2018-05-18T00:50:16.924Z,0
2018-05-18T00:50:43.063Z,0
2018-05-18T00:51:09.208Z,0
2018-05-18T00:51:35.344Z,0
2018-05-18T00:52:01.478Z,0
2018-05-18T00:52:27.623Z,0
2018-05-18T00:52:53.764Z,0
2018-05-18T00:53:19.903Z,0
2018-05-18T00:53:46.032Z,0
2018-05-18T00:54:12.174Z,0
2018-05-18T00:54:38.317Z,0
2018-05-18T00:55:04.484Z,0
2018-05-18T00:55:30.622Z,0
2018-05-18T00:55:56.791Z,0
2018-05-18T00:56:22.925Z,0
2018-05-18T00:56:49.060Z,0
2018-05-18T00:57:15.197Z,0
2018-05-18T00:57:41.394Z,0
2018-05-18T00:58:07.534Z,0
2018-05-18T00:58:33.692Z,0
2018-05-18T00:58:59.834Z,0
2018-05-18T00:59:26.002Z,0
2018-05-18T00:59:52.160Z,0
2018-05-18T01:00:18.290Z,0
2018-05-18T01:00:44.432Z,0
2018-05-18T01:01:10.564Z,0
2018-05-18T01:01:36.706Z,0
2018-05-18T01:02:02.840Z,0
2018-05-18T01:02:28.982Z,0
2018-05-18T01:02:55.120Z,0
2018-05-18T01:03:21.278Z,0
2018-05-18T01:03:47.416Z,0
2018-05-18T01:04:13.560Z,0
2018-05-18T01:04:39.696Z,0
2018-05-18T01:05:05.827Z,0
2018-05-18T01:05:31.966Z,0
2018-05-18T01:05:58.100Z,0
2018-05-18T01:06:24.239Z,0
2018-05-18T01:06:50.377Z,0
2018-05-18T01:07:16.517Z,0
2018-05-18T01:07:42.654Z,0
2018-05-18T01:08:08.790Z,0
2018-05-18T01:08:34.924Z,0
2018-05-18T01:09:01.068Z,0
2018-05-18T01:09:27.233Z,0
2018-05-18T01:09:53.373Z,0
2018-05-18T01:10:19.509Z,0
2018-05-18T01:10:45.669Z,0
2018-05-18T01:11:11.800Z,0
2018-05-18T01:11:37.966Z,0
2018-05-18T01:12:04.121Z,0
2018-05-18T01:12:30.259Z,0
2018-05-18T01:12:56.389Z,0
2018-05-18T01:13:22.537Z,0
2018-05-18T01:13:48.679Z,0
2018-05-18T01:14:14.830Z,0
2018-05-18T01:14:41.022Z,0
2018-05-18T01:15:07.178Z,0
2018-05-18T01:15:33.392Z,0
2018-05-18T01:15:59.701Z,0
2018-05-18T01:16:25.744Z,0
2018-05-18T01:16:51.884Z,0
2018-05-18T01:17:18.022Z,0
2018-05-18T01:17:44.161Z,0
2018-05-18T01:18:10.299Z,0
2018-05-18T01:18:36.464Z,0
2018-05-18T01:19:02.603Z,0
2018-05-18T01:19:28.739Z,0
2018-05-18T01:19:54.886Z,0
2018-05-18T01:20:21.025Z,0
2018-05-18T01:20:47.152Z,0
2018-05-18T01:21:13.297Z,0
2018-05-18T01:21:39.431Z,0
2018-05-18T01:22:05.575Z,0
2018-05-18T01:22:31.723Z,0
2018-05-18T01:22:57.856Z,0
2018-05-18T01:23:24.011Z,0
2018-05-18T01:23:50.152Z,0
2018-05-18T01:24:16.295Z,0
2018-05-18T01:24:42.437Z,0
2018-05-18T01:25:08.571Z,0
2018-05-18T01:25:34.714Z,0
2018-05-18T01:26:00.888Z,0
2018-05-18T01:26:27.020Z,0
2018-05-18T01:26:53.173Z,0
2018-05-18T01:27:19.335Z,0
2018-05-18T01:27:45.476Z,0
2018-05-18T01:28:11.614Z,0
2018-05-18T01:28:37.755Z,0
2018-05-18T01:29:03.913Z,0
2018-05-18T01:29:30.086Z,0
2018-05-18T01:29:56.228Z,0
2018-05-18T01:30:22.364Z,0
2018-05-18T01:30:48.496Z,0
2018-05-18T01:31:14.631Z,0
2018-05-18T01:31:40.771Z,0
2018-05-18T01:32:06.904Z,0
2018-05-18T01:32:33.042Z,0
2018-05-18T01:32:59.182Z,0
2018-05-18T01:33:25.322Z,0
2018-05-18T01:33:51.457Z,0
2018-05-18T01:34:17.596Z,0
2018-05-18T01:34:43.763Z,0
2018-05-18T01:35:09.901Z,0
2018-05-18T01:35:36.062Z,0
2018-05-18T01:36:02.202Z,0
2018-05-18T01:36:28.343Z,0
2018-05-18T01:36:54.479Z,0
2018-05-18T01:37:20.614Z,0
2018-05-18T01:37:46.756Z,0
2018-05-18T01:38:12.895Z,0
2018-05-18T01:38:39.029Z,0
2018-05-18T01:39:05.174Z,0
2018-05-18T01:39:31.330Z,0
2018-05-18T01:39:57.468Z,0
2018-05-18T01:40:23.612Z,0
2018-05-18T01:40:49.809Z,0
2018-05-18T01:41:15.964Z,0
2018-05-18T01:41:42.103Z,0
2018-05-18T01:42:08.241Z,0
2018-05-18T01:42:34.380Z,0
2018-05-18T01:43:00.522Z,0
2018-05-18T01:43:26.682Z,0
2018-05-18T01:43:52.841Z,0
2018-05-18T01:44:19.000Z,0
2018-05-18T01:44:45.192Z,0
2018-05-18T01:45:11.332Z,0
2018-05-18T01:45:37.471Z,0
2018-05-18T01:46:03.640Z,0
2018-05-18T01:46:29.768Z,0
2018-05-18T01:46:55.906Z,0
2018-05-18T01:47:22.071Z,0
2018-05-18T01:47:48.229Z,0
2018-05-18T01:48:14.370Z,0
2018-05-18T01:48:40.529Z,0
2018-05-18T01:49:06.676Z,0
2018-05-18T01:49:32.834Z,0
2018-05-18T01:49:58.973Z,0
2018-05-18T01:50:25.098Z,0
2018-05-18T01:50:51.266Z,0
2018-05-18T01:51:17.419Z,0
2018-05-18T01:51:43.603Z,0
2018-05-18T01:52:09.745Z,0
2018-05-18T01:52:35.908Z,0
2018-05-18T01:53:02.045Z,0
2018-05-18T01:53:28.179Z,0
2018-05-18T01:53:54.318Z,0
2018-05-18T01:54:20.454Z,0
2018-05-18T01:54:46.589Z,0
2018-05-18T01:55:12.727Z,0
2018-05-18T01:55:38.866Z,0
2018-05-18T01:56:05.033Z,0
2018-05-18T01:56:31.171Z,0
2018-05-18T01:56:57.313Z,0
2018-05-18T01:57:23.473Z,0
2018-05-18T01:57:49.627Z,0
2018-05-18T01:58:15.765Z,0
2018-05-18T01:58:41.928Z,0
2018-05-18T01:59:08.073Z,0
2018-05-18T01:59:34.205Z,0
2018-05-18T02:00:00.343Z,0
2018-05-18T02:00:26.478Z,0
2018-05-18T02:00:52.614Z,0
2018-05-18T02:01:18.757Z,0
2018-05-18T02:01:44.900Z,0
2018-05-18T02:02:11.038Z,0
2018-05-18T02:02:37.169Z,0
2018-05-18T02:03:03.336Z,0
2018-05-18T02:03:29.473Z,0
2018-05-18T02:03:55.618Z,0
2018-05-18T02:04:21.780Z,0
2018-05-18T02:04:47.966Z,0
2018-05-18T02:05:14.105Z,0
2018-05-18T02:05:40.243Z,0
2018-05-18T02:06:06.405Z,0
2018-05-18T02:06:32.548Z,0
2018-05-18T02:06:58.686Z,0
2018-05-18T02:07:24.826Z,0
2018-05-18T02:07:50.966Z,0
2018-05-18T02:08:17.105Z,0
2018-05-18T02:08:43.260Z,0
2018-05-18T02:09:09.425Z,0
2018-05-18T02:09:35.584Z,0
2018-05-18T02:10:01.731Z,0
2018-05-18T02:10:27.865Z,0
2018-05-18T02:10:54.044Z,0
2018-05-18T02:11:20.205Z,0
2018-05-18T02:11:46.367Z,0
2018-05-18T02:12:12.507Z,0
2018-05-18T02:12:38.645Z,0
2018-05-18T02:13:04.779Z,0
2018-05-18T02:13:30.919Z,0
2018-05-18T02:13:57.057Z,0
2018-05-18T02:14:23.227Z,0
2018-05-18T02:14:49.391Z,0
2018-05-18T02:15:15.527Z,0
2018-05-18T02:15:41.660Z,0
2018-05-18T02:16:07.803Z,0
2018-05-18T02:16:33.970Z,0
2018-05-18T02:17:00.110Z,0
2018-05-18T02:17:26.243Z,0
2018-05-18T02:17:52.377Z,0
2018-05-18T02:18:18.548Z,0
2018-05-18T02:18:44.679Z,0
2018-05-18T02:19:10.849Z,0
2018-05-18T02:19:37.005Z,0
2018-05-18T02:20:03.143Z,0
2018-05-18T02:20:29.284Z,0
2018-05-18T02:20:55.425Z,0
2018-05-18T02:21:21.605Z,0
2018-05-18T02:21:47.738Z,0
2018-05-18T02:22:13.878Z,0
2018-05-18T02:22:40.019Z,0
2018-05-18T02:23:06.151Z,0
2018-05-18T02:23:32.311Z,0
2018-05-18T02:23:58.473Z,0
2018-05-18T02:24:24.611Z,0
2018-05-18T02:24:50.748Z,0
2018-05-18T02:25:16.901Z,0
2018-05-18T02:25:43.064Z,0
2018-05-18T02:26:09.209Z,0
2018-05-18T02:26:35.377Z,0
2018-05-18T02:27:01.504Z,0
2018-05-18T02:27:27.673Z,0
2018-05-18T02:27:53.803Z,0
2018-05-18T02:28:19.945Z,0
2018-05-18T02:28:46.091Z,0
2018-05-18T02:29:12.221Z,0
2018-05-18T02:29:38.362Z,0
2018-05-18T02:30:04.496Z,0
2018-05-18T02:30:30.639Z,0
2018-05-18T02:30:56.771Z,0
2018-05-18T02:31:22.935Z,0
2018-05-18T02:31:49.075Z,0
2018-05-18T02:32:15.211Z,0
2018-05-18T02:32:41.370Z,0
2018-05-18T02:33:07.533Z,0
2018-05-18T02:33:33.698Z,0
2018-05-18T02:33:59.886Z,0
2018-05-18T02:34:26.028Z,0
2018-05-18T02:34:52.205Z,0
2018-05-18T02:35:18.375Z,0
2018-05-18T02:35:44.514Z,0
2018-05-18T02:36:10.697Z,0
2018-05-18T02:36:36.834Z,0
2018-05-18T02:37:02.997Z,0
2018-05-18T02:37:29.125Z,0
2018-05-18T02:37:55.288Z,0
2018-05-18T02:38:21.513Z,0
2018-05-18T02:38:47.672Z,0
2018-05-18T02:39:13.857Z,0
2018-05-18T02:39:39.994Z,0
2018-05-18T02:40:06.196Z,0
2018-05-18T02:40:32.335Z,0
2018-05-18T02:40:58.533Z,0
2018-05-18T02:41:24.668Z,0
2018-05-18T02:41:50.807Z,0
2018-05-18T02:42:16.972Z,0
2018-05-18T02:42:43.133Z,0
2018-05-18T02:43:09.344Z,0
2018-05-18T02:43:35.491Z,0
2018-05-18T02:44:01.643Z,0
2018-05-18T02:44:27.809Z,0
2018-05-18T02:44:54.018Z,0
2018-05-18T02:45:20.154Z,0
2018-05-18T02:45:46.321Z,0
2018-05-18T02:46:12.506Z,0
2018-05-18T02:46:38.712Z,0
2018-05-18T02:47:04.890Z,0
2018-05-18T02:47:31.060Z,0
2018-05-18T02:47:57.236Z,0
2018-05-18T02:48:23.444Z,0
2018-05-18T02:48:49.583Z,0
2018-05-18T02:49:15.742Z,0
2018-05-18T02:49:41.887Z,0
2018-05-18T02:50:08.041Z,0
2018-05-18T02:50:34.205Z,0
2018-05-18T02:51:00.348Z,0
2018-05-18T02:51:26.506Z,0
2018-05-18T02:51:52.666Z,0
2018-05-18T02:52:18.901Z,0
2018-05-18T02:52:44.965Z,0
2018-05-18T02:53:11.122Z,0
2018-05-18T02:53:37.261Z,0
2018-05-18T02:54:03.430Z,0
2018-05-18T02:54:29.569Z,0
2018-05-18T02:54:55.745Z,0
2018-05-18T02:55:21.913Z,0
2018-05-18T02:55:48.050Z,0
2018-05-18T02:56:14.184Z,0
2018-05-18T02:56:40.318Z,0
2018-05-18T02:57:06.452Z,0
2018-05-18T02:57:32.619Z,0
2018-05-18T02:57:58.776Z,0
2018-05-18T02:58:24.969Z,0
2018-05-18T02:58:51.156Z,4
2018-05-18T02:59:17.322Z,4
2018-05-18T02:59:43.492Z,4
2018-05-18T03:00:09.630Z,4
2018-05-18T03:00:35.792Z,4
2018-05-18T03:01:01.955Z,4
2018-05-18T03:01:28.115Z,4
2018-05-18T03:01:54.257Z,0
2018-05-18T03:02:20.417Z,0
2018-05-18T03:02:46.858Z,0
2018-05-18T03:03:13.109Z,4
2018-05-18T03:03:39.443Z,4
2018-05-18T03:04:05.786Z,4
2018-05-18T03:04:32.045Z,4
2018-05-18T03:04:58.350Z,4
2018-05-18T03:05:24.603Z,4
2018-05-18T03:05:51.075Z,8
2018-05-18T03:06:17.356Z,4
2018-05-18T03:06:43.649Z,4
2018-05-18T03:07:09.883Z,4
2018-05-18T03:07:36.099Z,4
2018-05-18T03:08:02.416Z,8
2018-05-18T03:08:28.864Z,8
2018-05-18T03:08:55.242Z,4
2018-05-18T03:09:21.470Z,4
2018-05-18T03:09:47.614Z,8
2018-05-18T03:10:13.760Z,8
2018-05-18T03:10:39.901Z,8
2018-05-18T03:11:06.037Z,8
2018-05-18T03:11:32.199Z,8
2018-05-18T03:11:58.341Z,12
2018-05-18T03:12:24.487Z,8
2018-05-18T03:12:50.652Z,8
2018-05-18T03:13:16.835Z,12
2018-05-18T03:13:42.997Z,12
2018-05-18T03:14:09.183Z,12
2018-05-18T03:14:35.375Z,12
2018-05-18T03:15:01.517Z,16
2018-05-18T03:15:27.676Z,16
2018-05-18T03:15:53.821Z,20
2018-05-18T03:16:19.951Z,16
2018-05-18T03:16:46.094Z,16
2018-05-18T03:17:12.261Z,20
2018-05-18T03:17:38.429Z,20
2018-05-18T03:18:04.560Z,24
2018-05-18T03:18:30.732Z,24
2018-05-18T03:18:56.891Z,24
2018-05-18T03:19:23.037Z,24
2018-05-18T03:19:49.161Z,28
2018-05-18T03:20:15.303Z,28
2018-05-18T03:20:41.467Z,28
2018-05-18T03:21:07.691Z,28
2018-05-18T03:21:33.749Z,32
2018-05-18T03:21:59.885Z,32
2018-05-18T03:22:26.053Z,36
2018-05-18T03:22:52.199Z,40
2018-05-18T03:23:18.334Z,40
2018-05-18T03:23:44.491Z,40
2018-05-18T03:24:10.628Z,44
2018-05-18T03:24:36.755Z,44
2018-05-18T03:25:02.896Z,48
2018-05-18T03:25:29.067Z,52
2018-05-18T03:25:55.207Z,52
2018-05-18T03:26:21.345Z,56
2018-05-18T03:26:47.506Z,60
2018-05-18T03:27:13.639Z,64
2018-05-18T03:27:39.782Z,68
2018-05-18T03:28:05.921Z,72
2018-05-18T03:28:32.057Z,76
2018-05-18T03:28:58.225Z,80
2018-05-18T03:29:24.358Z,84
2018-05-18T03:29:50.524Z,88
2018-05-18T03:30:16.684Z,92
2018-05-18T03:30:42.863Z,92
2018-05-18T03:31:09.027Z,100
2018-05-18T03:31:35.216Z,100
2018-05-18T03:32:01.351Z,104
2018-05-18T03:32:27.494Z,108
2018-05-18T03:32:53.625Z,112
2018-05-18T03:33:19.762Z,120
2018-05-18T03:33:45.899Z,124
2018-05-18T03:34:12.074Z,132
2018-05-18T03:34:38.229Z,136
2018-05-18T03:35:04.378Z,148
2018-05-18T03:35:30.539Z,156
2018-05-18T03:35:56.708Z,164
2018-05-18T03:36:22.877Z,176
2018-05-18T03:36:49.020Z,184
2018-05-18T03:37:15.176Z,188
2018-05-18T03:37:41.311Z,196
2018-05-18T03:38:07.470Z,196
2018-05-18T03:38:33.592Z,200
2018-05-18T03:38:59.730Z,208
2018-05-18T03:39:25.872Z,212
2018-05-18T03:39:52.010Z,212
2018-05-18T03:40:18.151Z,220
2018-05-18T03:40:44.282Z,224
2018-05-18T03:41:10.424Z,232
2018-05-18T03:41:36.561Z,240
2018-05-18T03:42:02.697Z,244
2018-05-18T03:42:28.839Z,256
2018-05-18T03:42:54.977Z,264
2018-05-18T03:43:21.117Z,268
2018-05-18T03:43:47.277Z,276
2018-05-18T03:44:13.415Z,288
2018-05-18T03:44:39.551Z,292
2018-05-18T03:45:05.687Z,296
2018-05-18T03:45:31.822Z,308
2018-05-18T03:45:57.961Z,316
2018-05-18T03:46:24.125Z,320
2018-05-18T03:46:50.264Z,328
2018-05-18T03:47:16.404Z,332
2018-05-18T03:47:42.573Z,340
2018-05-18T03:48:08.717Z,348
2018-05-18T03:48:34.853Z,356
2018-05-18T03:49:00.993Z,364
2018-05-18T03:49:27.131Z,372
2018-05-18T03:49:53.267Z,380
2018-05-18T03:50:19.404Z,388
2018-05-18T03:50:45.570Z,396
2018-05-18T03:51:11.727Z,408
2018-05-18T03:51:37.868Z,416
2018-05-18T03:52:04.005Z,424
2018-05-18T03:52:30.141Z,432
2018-05-18T03:52:56.282Z,440
2018-05-18T03:53:22.416Z,448
2018-05-18T03:53:48.607Z,460
2018-05-18T03:54:14.750Z,464
2018-05-18T03:54:40.886Z,472
2018-05-18T03:55:07.022Z,480
2018-05-18T03:55:33.164Z,488
2018-05-18T03:55:59.301Z,500
2018-05-18T03:56:25.438Z,508
2018-05-18T03:56:51.576Z,520
2018-05-18T03:57:17.716Z,532
2018-05-18T03:57:43.852Z,544
2018-05-18T03:58:09.995Z,556
2018-05-18T03:58:36.136Z,560
2018-05-18T03:59:02.271Z,568
2018-05-18T03:59:28.405Z,576
2018-05-18T03:59:54.543Z,588
2018-05-18T04:00:20.681Z,592
2018-05-18T04:00:46.824Z,604
2018-05-18T04:01:12.962Z,608
2018-05-18T04:01:39.173Z,616
2018-05-18T04:02:05.300Z,624
2018-05-18T04:02:31.441Z,636
2018-05-18T04:02:57.598Z,644
2018-05-18T04:03:23.740Z,652
2018-05-18T04:03:49.873Z,656
2018-05-18T04:04:16.040Z,660
2018-05-18T04:04:42.177Z,664
2018-05-18T04:05:08.315Z,672
2018-05-18T04:05:34.472Z,676
2018-05-18T04:06:00.615Z,688
2018-05-18T04:06:26.749Z,700
2018-05-18T04:06:52.913Z,708
2018-05-18T04:07:19.071Z,720
2018-05-18T04:07:45.243Z,728
2018-05-18T04:08:11.358Z,740
2018-05-18T04:08:37.520Z,748
2018-05-18T04:09:03.663Z,760
2018-05-18T04:09:29.797Z,772
2018-05-18T04:09:55.941Z,780
2018-05-18T04:10:22.194Z,792
2018-05-18T04:10:48.281Z,800
2018-05-18T04:11:14.419Z,808
2018-05-18T04:11:40.556Z,812
2018-05-18T04:12:06.740Z,820
2018-05-18T04:12:32.888Z,832
2018-05-18T04:12:59.021Z,840
2018-05-18T04:13:25.163Z,848
2018-05-18T04:13:51.356Z,864
2018-05-18T04:14:17.530Z,872
2018-05-18T04:14:43.674Z,884
2018-05-18T04:15:09.802Z,892
2018-05-18T04:15:35.992Z,896
2018-05-18T04:16:02.156Z,904
2018-05-18T04:16:28.296Z,912
2018-05-18T04:16:54.439Z,912
2018-05-18T04:17:20.600Z,920
2018-05-18T04:17:46.757Z,924
2018-05-18T04:18:12.895Z,936
2018-05-18T04:18:39.043Z,948
2018-05-18T04:19:05.204Z,968
2018-05-18T04:19:31.339Z,984
2018-05-18T04:19:57.602Z,1000
2018-05-18T04:20:23.676Z,1016
2018-05-18T04:20:49.813Z,1032
2018-05-18T04:21:15.954Z,1048
2018-05-18T04:21:42.089Z,1064
2018-05-18T04:22:08.228Z,1080
2018-05-18T04:22:34.367Z,1100
2018-05-18T04:23:00.509Z,1120
2018-05-18T04:23:26.665Z,1144
2018-05-18T04:23:52.811Z,1164
2018-05-18T04:24:18.946Z,1184
2018-05-18T04:24:45.083Z,1200
2018-05-18T04:25:11.225Z,1220
2018-05-18T04:25:37.386Z,1240
2018-05-18T04:26:03.522Z,1252
2018-05-18T04:26:29.655Z,1268
2018-05-18T04:26:55.797Z,1284
2018-05-18T04:27:21.938Z,1304
2018-05-18T04:27:48.070Z,1328
2018-05-18T04:28:14.205Z,1352
2018-05-18T04:28:40.349Z,1372
2018-05-18T04:29:06.508Z,1384
2018-05-18T04:29:32.670Z,1388
2018-05-18T04:29:58.832Z,1388
2018-05-18T04:30:25.021Z,1392
2018-05-18T04:30:51.092Z,1400
2018-05-18T04:31:17.226Z,1408
2018-05-18T04:31:43.387Z,1420
2018-05-18T04:32:09.528Z,1432
2018-05-18T04:32:35.688Z,1436
2018-05-18T04:33:01.827Z,1448
2018-05-18T04:33:27.963Z,1460
2018-05-18T04:33:54.128Z,1456
2018-05-18T04:34:20.328Z,1456
2018-05-18T04:34:46.460Z,1472
2018-05-18T04:35:12.603Z,1504
2018-05-18T04:35:38.735Z,1552
2018-05-18T04:36:04.873Z,1592
2018-05-18T04:36:31.016Z,1632
2018-05-18T04:36:57.172Z,1672
2018-05-18T04:37:23.313Z,1696
2018-05-18T04:37:49.481Z,1704
2018-05-18T04:38:15.617Z,1712
2018-05-18T04:38:41.783Z,1708
2018-05-18T04:39:07.926Z,1700
2018-05-18T04:39:34.060Z,1688
2018-05-18T04:40:00.197Z,1680
2018-05-18T04:40:26.334Z,1680
2018-05-18T04:40:52.494Z,1704
2018-05-18T04:41:18.639Z,1744
2018-05-18T04:41:44.775Z,1792
2018-05-18T04:42:10.948Z,1832
2018-05-18T04:42:37.077Z,1852
2018-05-18T04:43:03.277Z,1848
2018-05-18T04:43:29.431Z,1824
2018-05-18T04:43:55.577Z,1784
2018-05-18T04:44:21.713Z,1740
2018-05-18T04:44:47.853Z,1680
2018-05-18T04:45:13.989Z,1628
2018-05-18T04:45:40.128Z,1572
2018-05-18T04:46:06.268Z,1524
2018-05-18T04:46:32.400Z,1500
2018-05-18T04:46:58.545Z,1492
2018-05-18T04:47:24.700Z,1500
2018-05-18T04:47:50.843Z,1508
2018-05-18T04:48:16.980Z,1532
2018-05-18T04:48:43.142Z,1564
2018-05-18T04:49:09.293Z,1600
2018-05-18T04:49:35.447Z,1640
2018-05-18T04:50:01.580Z,1684
2018-05-18T04:50:27.717Z,1728
2018-05-18T04:50:53.891Z,1772
2018-05-18T04:51:20.051Z,1812
2018-05-18T04:51:46.190Z,1848
2018-05-18T04:52:12.325Z,1892
2018-05-18T04:52:38.462Z,1936
2018-05-18T04:53:04.607Z,2000
2018-05-18T04:53:30.747Z,2072
2018-05-18T04:53:56.883Z,2140
2018-05-18T04:54:23.016Z,2192
2018-05-18T04:54:49.179Z,2228
2018-05-18T04:55:15.319Z,2256
2018-05-18T04:55:41.477Z,2284
2018-05-18T04:56:07.613Z,2304
2018-05-18T04:56:33.753Z,2336
2018-05-18T04:56:59.888Z,2388
2018-05-18T04:57:26.040Z,2452
2018-05-18T04:57:52.181Z,2536
2018-05-18T04:58:18.315Z,2616
2018-05-18T04:58:44.530Z,2692
2018-05-18T04:59:10.587Z,2756
2018-05-18T04:59:36.719Z,2812
2018-05-18T05:00:02.866Z,2860
2018-05-18T05:00:29.005Z,2896
2018-05-18T05:00:55.143Z,2916
2018-05-18T05:01:21.303Z,2932
2018-05-18T05:01:47.442Z,2960
2018-05-18T05:02:13.581Z,3012
2018-05-18T05:02:39.745Z,3072
2018-05-18T05:03:05.886Z,3132
2018-05-18T05:03:32.027Z,3188
2018-05-18T05:03:58.172Z,3248
2018-05-18T05:04:24.313Z,3316
2018-05-18T05:04:50.471Z,3368
2018-05-18T05:05:16.638Z,3408
2018-05-18T05:05:42.808Z,3444
2018-05-18T05:06:08.938Z,3476
2018-05-18T05:06:35.106Z,3524
2018-05-18T05:07:01.265Z,3580
2018-05-18T05:07:27.409Z,3656
2018-05-18T05:07:53.549Z,3720
2018-05-18T05:08:19.705Z,3788
2018-05-18T05:08:45.851Z,3864
2018-05-18T05:09:11.991Z,3964
2018-05-18T05:09:38.125Z,4076
2018-05-18T05:10:04.299Z,4192
2018-05-18T05:10:30.456Z,4308
2018-05-18T05:10:56.598Z,4444
2018-05-18T05:11:22.730Z,4568
2018-05-18T05:11:48.867Z,4708
2018-05-18T05:12:15.008Z,4844
2018-05-18T05:12:41.172Z,4976
2018-05-18T05:13:07.308Z,5100
2018-05-18T05:13:33.465Z,5236
2018-05-18T05:13:59.600Z,5392
2018-05-18T05:14:25.747Z,5580
2018-05-18T05:14:51.878Z,5796
2018-05-18T05:15:18.041Z,6004
2018-05-18T05:15:44.182Z,6124
2018-05-18T05:16:10.320Z,6164
2018-05-18T05:16:36.456Z,6224
2018-05-18T05:17:02.597Z,6312
2018-05-18T05:17:28.763Z,6320
2018-05-18T05:17:54.902Z,6312
2018-05-18T05:18:21.041Z,6308
2018-05-18T05:18:47.175Z,6264
2018-05-18T05:19:13.321Z,6240
2018-05-18T05:19:39.455Z,6232
2018-05-18T05:20:05.595Z,6244
2018-05-18T05:20:31.734Z,6248
2018-05-18T05:20:57.864Z,6296
2018-05-18T05:21:24.007Z,6396
2018-05-18T05:21:50.147Z,6484
2018-05-18T05:22:16.286Z,6512
2018-05-18T05:22:42.427Z,6512
2018-05-18T05:23:08.600Z,6508
2018-05-18T05:23:34.811Z,6488
2018-05-18T05:24:00.890Z,6476
2018-05-18T05:24:27.031Z,6560
2018-05-18T05:24:53.164Z,6660
2018-05-18T05:25:19.333Z,6772
2018-05-18T05:25:45.481Z,6944
2018-05-18T05:26:11.625Z,7040
2018-05-18T05:26:37.765Z,7056
2018-05-18T05:27:03.935Z,7028
2018-05-18T05:27:30.077Z,7004
2018-05-18T05:27:56.230Z,6976
2018-05-18T05:28:22.373Z,6972
2018-05-18T05:28:48.511Z,7032
2018-05-18T05:29:14.666Z,7188
2018-05-18T05:29:40.812Z,7384
2018-05-18T05:30:06.952Z,7524
2018-05-18T05:30:33.119Z,7628
2018-05-18T05:30:59.276Z,7656
2018-05-18T05:31:25.412Z,7588
2018-05-18T05:31:51.556Z,7464
2018-05-18T05:32:17.683Z,7436
2018-05-18T05:32:43.827Z,7436
2018-05-18T05:33:09.964Z,7484
2018-05-18T05:33:36.153Z,7512
2018-05-18T05:34:02.290Z,7532
2018-05-18T05:34:28.433Z,7560
2018-05-18T05:34:54.592Z,7628
2018-05-18T05:35:20.753Z,7752
2018-05-18T05:35:46.885Z,7852
2018-05-18T05:36:13.072Z,7952
2018-05-18T05:36:39.238Z,8024
2018-05-18T05:37:05.410Z,8032
2018-05-18T05:37:31.555Z,7980
2018-05-18T05:37:57.689Z,7912
2018-05-18T05:38:23.833Z,7912
2018-05-18T05:38:49.964Z,7988
2018-05-18T05:39:16.109Z,8068
2018-05-18T05:39:42.248Z,8140
2018-05-18T05:40:08.384Z,8220
2018-05-18T05:40:34.543Z,8268
2018-05-18T05:41:00.684Z,8316
2018-05-18T05:41:26.815Z,8288
2018-05-18T05:41:52.955Z,8232
2018-05-18T05:42:19.088Z,8296
2018-05-18T05:42:45.301Z,8408
2018-05-18T05:43:11.366Z,8488
2018-05-18T05:43:37.505Z,8508
2018-05-18T05:44:03.647Z,8620
2018-05-18T05:44:29.781Z,8720
2018-05-18T05:44:55.919Z,8812
2018-05-18T05:45:22.061Z,8900
2018-05-18T05:45:48.230Z,8992
2018-05-18T05:46:14.358Z,9092
2018-05-18T05:46:40.509Z,9228
2018-05-18T05:47:06.661Z,9492
2018-05-18T05:47:32.799Z,9788
2018-05-18T05:47:58.941Z,10016
2018-05-18T05:48:25.073Z,10200
2018-05-18T05:48:51.213Z,10272
2018-05-18T05:49:17.372Z,10360
2018-05-18T05:49:43.539Z,10340
2018-05-18T05:50:09.680Z,10376
2018-05-18T05:50:35.819Z,10408
2018-05-18T05:51:01.948Z,10688
2018-05-18T05:51:28.111Z,10988
2018-05-18T05:51:54.270Z,11084
2018-05-18T05:52:20.425Z,10964
2018-05-18T05:52:46.571Z,11068
2018-05-18T05:53:12.730Z,11292
2018-05-18T05:53:38.874Z,11544
2018-05-18T05:54:05.010Z,11864
2018-05-18T05:54:31.151Z,12112
2018-05-18T05:54:57.284Z,12340
2018-05-18T05:55:23.450Z,12636
2018-05-18T05:55:49.614Z,12988
2018-05-18T05:56:15.764Z,13064
2018-05-18T05:56:41.927Z,13072
2018-05-18T05:57:08.059Z,13164
2018-05-18T05:57:34.196Z,13196
2018-05-18T05:58:00.340Z,13140
2018-05-18T05:58:26.557Z,13108
2018-05-18T05:58:52.667Z,13248
2018-05-18T05:59:18.802Z,13480
2018-05-18T05:59:44.941Z,13816
2018-05-18T06:00:11.078Z,14348
2018-05-18T06:00:37.211Z,14856
2018-05-18T06:01:03.356Z,15280
2018-05-18T06:01:29.494Z,15360
2018-05-18T06:01:55.634Z,15440
2018-05-18T06:02:21.775Z,15396
2018-05-18T06:02:47.941Z,15256
2018-05-18T06:03:14.066Z,15184
2018-05-18T06:03:40.215Z,15208
2018-05-18T06:04:06.402Z,15400
2018-05-18T06:04:32.565Z,15476
2018-05-18T06:04:58.701Z,14808
2018-05-18T06:05:24.920Z,14380
2018-05-18T06:05:51.012Z,14076
2018-05-18T06:06:17.149Z,14020
2018-05-18T06:06:43.295Z,14188
2018-05-18T06:07:09.421Z,14400
2018-05-18T06:07:35.586Z,14472
2018-05-18T06:08:01.732Z,14320
2018-05-18T06:08:27.891Z,13936
2018-05-18T06:08:54.032Z,13364
2018-05-18T06:09:20.200Z,12796